createdAt,value
2018-05-27T00:02:12.120Z,10.00
2018-05-27T00:04:39.728Z,8.10
2018-05-27T00:07:09.006Z,7.90
2018-05-27T00:09:36.656Z,7.80
2018-05-27T00:12:04.409Z,7.80
2018-05-27T00:14:32.836Z,8.10
2018-05-27T00:17:01.497Z,7.70
2018-05-27T00:19:29.187Z,9.50
2018-05-27T00:21:57.596Z,8.20
2018-05-27T00:24:26.053Z,8.20
2018-05-27T00:26:54.500Z,9.47
2018-05-27T00:29:23.068Z,8.27
2018-05-27T00:31:53.416Z,10.00
2018-05-27T00:34:21.857Z,8.20
2018-05-27T00:36:49.495Z,9.80
2018-05-27T00:39:17.968Z,8.60
2018-05-27T00:41:45.578Z,9.90
2018-05-27T00:44:13.128Z,9.33
2018-05-27T00:46:50.860Z,10.00
2018-05-27T00:49:19.380Z,10.27
2018-05-27T00:51:47.031Z,9.53
2018-05-27T00:54:15.536Z,11.20
2018-05-27T00:56:43.400Z,10.10
2018-05-27T00:59:11.017Z,10.10
2018-05-27T01:01:38.596Z,10.73
2018-05-27T01:04:09.284Z,10.57
2018-05-27T01:06:36.928Z,10.17
2018-05-27T01:09:05.585Z,10.20
2018-05-27T01:11:33.183Z,11.10
2018-05-27T01:14:00.757Z,11.43
2018-05-27T01:16:29.144Z,10.73
2018-05-27T01:18:56.908Z,11.67
2018-05-27T01:21:25.432Z,10.77
2018-05-27T01:23:53.917Z,11.40
2018-05-27T01:26:21.456Z,10.93
2018-05-27T01:28:49.120Z,11.17
2018-05-27T01:31:16.800Z,11.57
2018-05-27T01:33:44.858Z,10.33
2018-05-27T01:36:12.401Z,9.83
2018-05-27T01:38:40.012Z,11.07
2018-05-27T01:41:07.601Z,11.57
2018-05-27T01:43:35.186Z,10.20
2018-05-27T01:46:02.761Z,10.07
2018-05-27T01:48:30.307Z,11.47
2018-05-27T01:50:58.316Z,11.30
2018-05-27T01:53:25.980Z,10.97
2018-05-27T01:55:53.611Z,11.90
2018-05-27T01:58:21.223Z,11.60
2018-05-27T02:00:48.764Z,13.03
2018-05-27T02:03:16.340Z,11.77
2018-05-27T02:05:44.848Z,12.30
2018-05-27T02:08:12.492Z,11.50
2018-05-27T02:10:40.225Z,12.30
2018-05-27T02:13:07.856Z,12.10
2018-05-27T02:15:35.460Z,12.37
2018-05-27T02:18:03.095Z,11.80
2018-05-27T02:20:30.801Z,12.20
2018-05-27T02:22:58.511Z,11.80
2018-05-27T02:25:26.183Z,11.60
2018-05-27T02:27:53.757Z,11.50
2018-05-27T02:30:21.401Z,12.30
2018-05-27T02:32:48.988Z,11.87
2018-05-27T02:35:16.538Z,12.00
2018-05-27T02:37:44.085Z,12.27
2018-05-27T02:40:11.744Z,12.50
2018-05-27T02:42:39.399Z,14.73
2018-05-27T02:45:07.320Z,12.50
2018-05-27T02:47:34.996Z,14.50
2018-05-27T02:50:02.621Z,13.07
2018-05-27T02:52:30.481Z,13.50
2018-05-27T02:54:58.892Z,13.00
2018-05-27T02:57:26.518Z,11.90
2018-05-27T02:59:54.453Z,11.40
2018-05-27T03:02:22.004Z,11.57
2018-05-27T03:04:49.647Z,14.67
2018-05-27T03:07:17.417Z,12.97
2018-05-27T03:09:45.880Z,12.00
2018-05-27T03:12:14.520Z,11.23
2018-05-27T03:14:42.207Z,11.63
2018-05-27T03:17:10.741Z,12.93
2018-05-27T03:19:39.496Z,11.43
2018-05-27T03:22:07.309Z,13.30
2018-05-27T03:24:35.836Z,11.30
2018-05-27T03:27:03.448Z,11.80
2018-05-27T03:29:30.984Z,8.60
2018-05-27T03:31:58.589Z,8.17
2018-05-27T03:34:26.165Z,8.77
2018-05-27T03:36:53.980Z,9.73
2018-05-27T03:39:21.568Z,9.27
2018-05-27T03:41:49.170Z,9.40
2018-05-27T03:44:16.736Z,9.17
2018-05-27T03:46:44.455Z,9.50
2018-05-27T03:49:12.073Z,9.57
2018-05-27T03:51:39.660Z,9.40
2018-05-27T03:54:07.207Z,9.20
2018-05-27T03:56:34.812Z,8.43
2018-05-27T03:59:02.456Z,9.23
2018-05-27T04:01:30.924Z,8.80
2018-05-27T04:07:11.848Z,9.17
2018-05-27T04:09:39.532Z,9.10
2018-05-27T04:12:07.156Z,9.70
2018-05-27T04:14:34.716Z,10.63
2018-05-27T04:17:02.336Z,11.07
2018-05-27T04:19:31.325Z,9.77
2018-05-27T04:21:58.976Z,9.47
2018-05-27T04:24:26.553Z,8.67
2018-05-27T04:26:54.608Z,8.80
2018-05-27T04:29:22.488Z,9.60
2018-05-27T04:31:50.241Z,7.50
2018-05-27T04:34:17.940Z,8.07
2018-05-27T04:36:45.520Z,8.90
2018-05-27T04:39:13.089Z,7.53
2018-05-27T04:41:40.663Z,8.33
2018-05-27T04:44:08.303Z,7.23
2018-05-27T04:46:35.948Z,7.87
2018-05-27T04:49:05.444Z,7.40
2018-05-27T04:51:33.096Z,8.40
2018-05-27T04:54:00.668Z,6.60
2018-05-27T04:56:28.345Z,7.37
2018-05-27T04:58:55.944Z,7.83
2018-05-27T05:01:23.576Z,6.43
2018-05-27T05:03:51.172Z,6.90
2018-05-27T05:06:18.734Z,6.70
2018-05-27T05:08:46.451Z,7.50
2018-05-27T05:11:14.137Z,6.27
2018-05-27T05:13:41.812Z,6.00
2018-05-27T05:16:09.468Z,6.63
2018-05-27T05:18:37.133Z,6.40
2018-05-27T05:21:04.812Z,6.77
2018-05-27T05:23:32.440Z,6.33
2018-05-27T05:26:00.125Z,5.80
2018-05-27T05:28:27.692Z,6.30
2018-05-27T05:30:55.253Z,5.73
2018-05-27T05:33:22.801Z,6.40
2018-05-27T05:35:50.480Z,5.30
2018-05-27T05:38:18.048Z,5.33
2018-05-27T05:40:45.661Z,6.97
2018-05-27T05:43:13.232Z,5.87
2018-05-27T05:45:40.808Z,5.70
2018-05-27T05:48:08.564Z,6.77
2018-05-27T05:50:36.105Z,5.83
2018-05-27T05:53:03.788Z,5.67
2018-05-27T05:55:31.397Z,6.40
2018-05-27T05:57:58.959Z,6.30
2018-05-27T06:00:26.527Z,6.40
2018-05-27T06:02:54.116Z,7.37
2018-05-27T06:05:21.708Z,7.63
2018-05-27T06:07:49.257Z,9.27
2018-05-27T06:10:16.936Z,8.43
2018-05-27T06:12:44.575Z,7.27
2018-05-27T06:15:12.164Z,8.23
2018-05-27T06:17:40.628Z,8.10
2018-05-27T06:20:08.242Z,7.57
2018-05-27T06:22:35.815Z,7.83
2018-05-27T06:25:03.356Z,7.90
2018-05-27T06:27:30.981Z,8.60
2018-05-27T06:29:58.520Z,5.97
2018-05-27T06:32:26.157Z,6.30
2018-05-27T06:34:53.729Z,6.40
2018-05-27T06:37:22.272Z,7.10
2018-05-27T06:39:49.876Z,6.60
2018-05-27T06:42:17.872Z,6.20
2018-05-27T06:44:45.529Z,6.10
2018-05-27T06:47:13.168Z,7.10
2018-05-27T06:49:40.820Z,8.20
2018-05-27T06:52:08.369Z,7.50
2018-05-27T06:54:36.013Z,7.20
2018-05-27T06:57:03.620Z,7.27
2018-05-27T06:59:31.208Z,7.67
2018-05-27T07:01:58.883Z,6.50
2018-05-27T07:04:26.489Z,7.03
2018-05-27T07:06:54.033Z,6.97
2018-05-27T07:09:21.656Z,8.30
2018-05-27T07:11:49.264Z,6.93
2018-05-27T07:14:16.818Z,6.73
2018-05-27T07:16:44.444Z,6.57
2018-05-27T07:19:12.048Z,8.03
2018-05-27T07:21:39.612Z,8.03
2018-05-27T07:24:07.463Z,8.10
2018-05-27T07:26:35.081Z,7.40
2018-05-27T07:29:02.641Z,7.43
2018-05-27T07:31:30.212Z,8.27
2018-05-27T07:33:57.868Z,9.13
2018-05-27T07:36:25.562Z,9.33
2018-05-27T07:38:53.180Z,7.93
2018-05-27T07:41:21.611Z,8.30
2018-05-27T07:43:49.268Z,8.30
2018-05-27T07:46:17.842Z,7.43
2018-05-27T07:48:45.408Z,7.90
2018-05-27T07:51:13.021Z,7.50
2018-05-27T07:53:40.688Z,8.23
2018-05-27T07:56:08.251Z,7.30
2018-05-27T07:58:35.816Z,7.77
2018-05-27T08:01:03.407Z,8.17
2018-05-27T08:03:31.008Z,8.60
2018-05-27T08:05:58.640Z,7.70
2018-05-27T08:08:26.177Z,8.30
2018-05-27T08:10:53.789Z,8.20
2018-05-27T08:13:21.373Z,7.90
2018-05-27T08:15:49.000Z,7.73
2018-05-27T08:18:16.635Z,8.23
2018-05-27T08:20:44.220Z,7.13
2018-05-27T08:23:11.924Z,6.83
2018-05-27T08:25:39.464Z,7.93
2018-05-27T08:28:07.140Z,7.03
2018-05-27T08:30:34.973Z,7.73
2018-05-27T08:33:02.627Z,7.70
2018-05-27T08:35:30.357Z,7.10
2018-05-27T08:37:57.965Z,7.80
2018-05-27T08:40:25.513Z,8.50
2018-05-27T08:42:53.067Z,7.77
2018-05-27T08:45:20.692Z,7.17
2018-05-27T08:47:48.293Z,7.93
2018-05-27T08:50:15.847Z,7.50
2018-05-27T08:52:45.069Z,6.20
2018-05-27T08:55:12.705Z,6.40
2018-05-27T08:57:40.464Z,6.10
2018-05-27T09:00:08.001Z,6.30
2018-05-27T09:02:35.795Z,6.50
2018-05-27T09:05:06.133Z,6.60
2018-05-27T09:07:33.728Z,6.80
2018-05-27T09:10:01.396Z,6.30
2018-05-27T09:12:29.811Z,6.23
2018-05-27T09:14:57.400Z,6.13
2018-05-27T09:17:24.944Z,6.20
2018-05-27T09:19:52.495Z,5.27
2018-05-27T09:22:20.113Z,6.53
2018-05-27T09:24:47.757Z,5.93
2018-05-27T09:27:15.336Z,5.97
2018-05-27T09:29:43.006Z,6.83
2018-05-27T09:32:10.545Z,5.30
2018-05-27T09:34:38.161Z,5.63
2018-05-27T09:37:05.703Z,5.37
2018-05-27T09:39:33.256Z,5.20
2018-05-27T09:42:00.794Z,6.90
2018-05-27T09:44:28.418Z,6.63
2018-05-27T09:46:55.982Z,6.23
2018-05-27T09:49:23.607Z,6.10
2018-05-27T09:51:51.164Z,5.40
2018-05-27T09:54:18.728Z,6.70
2018-05-27T09:56:46.288Z,7.07
2018-05-27T09:59:13.848Z,5.20
2018-05-27T10:01:41.440Z,6.40
2018-05-27T10:04:08.980Z,6.60
2018-05-27T10:06:36.524Z,6.10
2018-05-27T10:09:04.232Z,4.07
2018-05-27T10:11:31.783Z,4.67
2018-05-27T10:13:59.361Z,4.30
2018-05-27T10:16:26.981Z,4.10
2018-05-27T10:18:54.580Z,4.07
2018-05-27T10:21:22.208Z,4.93
2018-05-27T10:23:49.749Z,4.43
2018-05-27T10:26:17.309Z,4.43
2018-05-27T10:28:44.860Z,4.90
2018-05-27T10:31:12.497Z,4.60
2018-05-27T10:33:40.093Z,4.80
2018-05-27T10:36:07.684Z,4.87
2018-05-27T10:38:35.342Z,5.23
2018-05-27T10:41:02.904Z,4.40
2018-05-27T10:43:30.498Z,4.27
2018-05-27T10:45:58.090Z,3.83
2018-05-27T10:48:25.641Z,4.33
2018-05-27T10:50:53.184Z,3.77
2018-05-27T10:53:20.816Z,4.23
2018-05-27T10:55:48.380Z,3.63
2018-05-27T10:58:15.932Z,3.60
2018-05-27T11:00:43.540Z,2.93
2018-05-27T11:03:11.132Z,5.00
2018-05-27T11:05:38.771Z,3.87
2018-05-27T11:08:06.312Z,3.37
2018-05-27T11:10:33.929Z,4.13
2018-05-27T11:13:01.513Z,3.40
2018-05-27T11:15:29.054Z,2.97
2018-05-27T11:17:56.676Z,3.47
2018-05-27T11:20:24.217Z,3.30
2018-05-27T11:22:51.767Z,3.50
2018-05-27T11:25:19.338Z,3.37
2018-05-27T11:27:47.092Z,3.03
2018-05-27T11:30:14.673Z,3.60
2018-05-27T11:32:42.249Z,2.93
2018-05-27T11:35:09.997Z,3.20
2018-05-27T11:37:37.844Z,3.00
2018-05-27T11:40:05.388Z,2.57
2018-05-27T11:42:33.223Z,3.43
2018-05-27T11:45:01.093Z,3.73
2018-05-27T11:47:28.632Z,2.90
2018-05-27T11:49:56.188Z,3.40
2018-05-27T11:52:23.751Z,3.50
2018-05-27T11:54:51.285Z,3.60
2018-05-27T11:57:18.892Z,2.67
2018-05-27T11:59:46.444Z,2.63
2018-05-27T12:02:14.145Z,2.57
2018-05-27T12:04:41.700Z,3.03
2018-05-27T12:07:09.273Z,3.30
2018-05-27T12:09:37.098Z,2.90
2018-05-27T12:12:04.586Z,2.90
2018-05-27T12:14:32.136Z,2.73
2018-05-27T12:16:59.693Z,2.23
2018-05-27T12:19:27.357Z,2.80
2018-05-27T12:21:55.001Z,2.70
2018-05-27T12:24:22.593Z,2.73
2018-05-27T12:26:50.162Z,2.60
2018-05-27T12:29:17.836Z,3.10
2018-05-27T12:31:45.444Z,3.50
2018-05-27T12:34:13.001Z,2.73
2018-05-27T12:36:40.637Z,2.67
2018-05-27T12:39:08.345Z,3.60
2018-05-27T12:41:35.937Z,2.70
2018-05-27T12:44:03.524Z,2.67
2018-05-27T12:46:31.088Z,2.47
2018-05-27T12:48:58.685Z,3.23
2018-05-27T12:51:26.237Z,2.90
2018-05-27T12:53:53.896Z,3.20
2018-05-27T12:56:21.736Z,3.33
2018-05-27T12:58:49.348Z,3.30
2018-05-27T13:01:16.912Z,2.70
2018-05-27T13:03:44.460Z,3.33
2018-05-27T13:06:12.085Z,3.17
2018-05-27T13:08:39.668Z,2.67
2018-05-27T13:11:07.228Z,3.47
2018-05-27T13:13:34.776Z,3.10
2018-05-27T13:16:02.335Z,3.03
2018-05-27T13:18:29.888Z,3.50
2018-05-27T13:20:57.582Z,3.20
2018-05-27T13:23:25.312Z,3.23
2018-05-27T13:25:53.884Z,4.97
2018-05-27T13:28:21.472Z,3.77
2018-05-27T13:30:49.120Z,2.57
2018-05-27T13:33:16.688Z,3.10
2018-05-27T13:35:44.262Z,3.03
2018-05-27T13:38:11.871Z,3.30
2018-05-27T13:40:39.519Z,3.43
2018-05-27T13:43:07.125Z,2.80
2018-05-27T13:45:34.733Z,3.33
2018-05-27T13:48:02.501Z,2.80
2018-05-27T13:50:30.086Z,2.60
2018-05-27T13:52:57.629Z,3.07
2018-05-27T13:55:25.232Z,3.33
2018-05-27T13:57:52.821Z,2.70
2018-05-27T14:00:20.455Z,3.33
2018-05-27T14:02:48.057Z,2.57
2018-05-27T14:05:15.900Z,3.30
2018-05-27T14:07:43.584Z,3.40
2018-05-27T14:10:12.066Z,2.90
2018-05-27T14:12:39.604Z,2.70
2018-05-27T14:15:07.349Z,2.90
2018-05-27T14:17:34.996Z,3.50
2018-05-27T14:20:02.585Z,3.03
2018-05-27T14:22:30.148Z,3.37
2018-05-27T14:24:57.728Z,3.53
2018-05-27T14:27:25.331Z,2.77
2018-05-27T14:29:53.697Z,2.53
2018-05-27T14:32:21.295Z,2.27
2018-05-27T14:34:48.893Z,3.23
2018-05-27T14:37:16.507Z,3.90
2018-05-27T14:39:44.061Z,2.80
2018-05-27T14:42:11.596Z,3.20
2018-05-27T14:44:39.184Z,3.60
2018-05-27T14:47:06.736Z,2.43
2018-05-27T14:49:34.333Z,2.87
2018-05-27T14:52:01.940Z,3.03
2018-05-27T14:54:29.694Z,2.80
2018-05-27T14:56:57.244Z,2.80
2018-05-27T14:59:24.908Z,2.87
2018-05-27T15:01:52.484Z,2.63
2018-05-27T15:04:20.172Z,2.83
2018-05-27T15:06:47.881Z,2.40
2018-05-27T15:09:15.452Z,2.97
2018-05-27T15:11:43.779Z,2.83
2018-05-27T15:14:11.366Z,3.43
2018-05-27T15:16:38.927Z,3.60
2018-05-27T15:19:06.536Z,2.90
2018-05-27T15:21:34.145Z,3.00
2018-05-27T15:24:01.698Z,2.83
2018-05-27T15:26:29.281Z,2.33
2018-05-27T15:28:56.924Z,2.50
2018-05-27T15:31:24.500Z,3.10
2018-05-27T15:33:52.057Z,2.57
2018-05-27T15:36:19.616Z,2.67
2018-05-27T15:38:47.168Z,2.87
2018-05-27T15:41:14.727Z,3.60
2018-05-27T15:43:42.283Z,3.10
2018-05-27T15:46:09.960Z,2.67
2018-05-27T15:48:37.534Z,2.80
2018-05-27T15:51:05.160Z,2.80
2018-05-27T15:53:32.736Z,3.30
2018-05-27T15:56:00.280Z,2.50
2018-05-27T15:58:27.913Z,2.90
2018-05-27T16:00:55.527Z,2.40
2018-05-27T16:03:23.147Z,3.70
2018-05-27T16:05:50.712Z,3.07
2018-05-27T16:08:18.278Z,2.57
2018-05-27T16:10:45.892Z,3.17
2018-05-27T16:13:13.505Z,2.70
2018-05-27T16:15:41.076Z,3.30
2018-05-27T16:18:08.732Z,2.50
2018-05-27T16:20:36.300Z,3.87
2018-05-27T16:23:03.960Z,2.20
2018-05-27T16:25:31.524Z,3.37
2018-05-27T16:27:59.085Z,3.33
2018-05-27T16:30:26.663Z,2.30
2018-05-27T16:32:54.206Z,2.70
2018-05-27T16:35:21.768Z,3.13
2018-05-27T16:37:49.318Z,3.10
2018-05-27T16:40:16.929Z,3.30
2018-05-27T16:42:44.511Z,2.80
2018-05-27T16:45:12.094Z,4.03
2018-05-27T16:47:39.666Z,2.80
2018-05-27T16:50:07.228Z,3.00
2018-05-27T16:52:34.797Z,2.87
2018-05-27T16:55:02.362Z,2.53
2018-05-27T16:57:29.999Z,2.77
2018-05-27T16:59:57.564Z,3.30
2018-05-27T17:02:25.132Z,2.97
2018-05-27T17:04:52.685Z,3.03
2018-05-27T17:07:20.285Z,2.97
2018-05-27T17:09:47.887Z,2.50
2018-05-27T17:12:15.623Z,3.03
2018-05-27T17:14:43.208Z,3.63
2018-05-27T17:17:10.791Z,3.03
2018-05-27T17:19:38.404Z,2.50
2018-05-27T17:22:06.022Z,3.17
2018-05-27T17:24:33.715Z,3.57
2018-05-27T17:27:01.365Z,3.07
2018-05-27T17:29:29.044Z,2.73
2018-05-27T17:31:56.643Z,3.00
2018-05-27T17:34:24.271Z,3.30
2018-05-27T17:36:51.893Z,3.37
2018-05-27T17:39:19.489Z,4.30
2018-05-27T17:41:47.078Z,4.33
2018-05-27T17:44:14.841Z,2.90
2018-05-27T17:46:42.453Z,3.40
2018-05-27T17:49:10.057Z,3.70
2018-05-27T17:51:37.681Z,3.00
2018-05-27T17:54:05.288Z,3.97
2018-05-27T17:56:32.977Z,3.83
2018-05-27T17:59:00.637Z,3.67
2018-05-27T18:01:28.240Z,3.60
2018-05-27T18:03:55.912Z,3.40
2018-05-27T18:06:23.505Z,3.10
2018-05-27T18:08:51.167Z,4.70
2018-05-27T18:11:18.885Z,3.97
2018-05-27T18:13:46.623Z,4.70
2018-05-27T18:16:14.281Z,4.33
2018-05-27T18:18:41.942Z,5.30
2018-05-27T18:21:09.528Z,3.90
2018-05-27T18:23:37.261Z,3.70
2018-05-27T18:26:04.975Z,3.27
2018-05-27T18:28:32.739Z,4.47
2018-05-27T18:31:00.450Z,3.73
2018-05-27T18:33:28.085Z,3.20
2018-05-27T18:35:55.751Z,3.50
2018-05-27T18:38:23.386Z,3.17
2018-05-27T18:40:51.044Z,3.30
2018-05-27T18:43:18.683Z,3.63
2018-05-27T18:45:46.404Z,3.30
2018-05-27T18:48:14.032Z,3.20
2018-05-27T18:50:41.665Z,3.97
2018-05-27T18:53:09.396Z,4.13
2018-05-27T18:55:37.040Z,3.40
2018-05-27T18:58:04.694Z,4.37
2018-05-27T19:00:32.373Z,4.33
2018-05-27T19:03:00.085Z,3.20
2018-05-27T19:05:27.785Z,5.60
2018-05-27T19:07:55.479Z,4.20
2018-05-27T19:10:23.140Z,3.73
2018-05-27T19:12:50.757Z,5.47
2018-05-27T19:15:18.366Z,4.20
2018-05-27T19:17:46.035Z,3.97
2018-05-27T19:20:13.684Z,3.10
2018-05-27T19:22:41.283Z,3.43
2018-05-27T19:25:08.905Z,3.43
2018-05-27T19:27:36.468Z,3.90
2018-05-27T19:30:04.135Z,4.10
2018-05-27T19:32:31.710Z,3.40
2018-05-27T19:34:59.271Z,3.70
2018-05-27T19:37:27.036Z,4.20
2018-05-27T19:39:54.636Z,4.10
2018-05-27T19:42:22.268Z,3.83
2018-05-27T19:44:49.857Z,3.33
2018-05-27T19:47:17.476Z,3.63
2018-05-27T19:49:45.089Z,4.13
2018-05-27T19:52:12.684Z,3.97
2018-05-27T19:54:40.259Z,4.00
2018-05-27T19:57:07.806Z,3.40
2018-05-27T19:59:35.364Z,4.20
2018-05-27T20:02:02.937Z,3.53
2018-05-27T20:04:30.500Z,4.33
2018-05-27T20:06:58.068Z,3.30
2018-05-27T20:09:25.649Z,3.77
2018-05-27T20:11:53.265Z,3.70
2018-05-27T20:14:20.808Z,4.80
2018-05-27T20:16:48.382Z,3.30
2018-05-27T20:19:15.944Z,4.50
2018-05-27T20:21:43.502Z,4.37
2018-05-27T20:24:11.057Z,3.30
2018-05-27T20:26:38.613Z,3.27
2018-05-27T20:29:06.260Z,3.93
2018-05-27T20:31:33.805Z,3.60
2018-05-27T20:34:01.424Z,3.50
2018-05-27T20:36:29.068Z,2.97
2018-05-27T20:38:56.609Z,3.63
2018-05-27T20:41:24.177Z,3.57
2018-05-27T20:43:51.770Z,3.03
2018-05-27T20:46:19.400Z,4.07
2018-05-27T20:48:46.949Z,3.27
2018-05-27T20:51:14.529Z,2.87
2018-05-27T20:53:42.081Z,3.60
2018-05-27T20:56:09.638Z,3.43
2018-05-27T20:58:37.207Z,3.60
2018-05-27T21:01:04.746Z,4.43
2018-05-27T21:03:32.351Z,3.67
2018-05-27T21:05:59.944Z,4.23
2018-05-27T21:08:27.531Z,4.30
2018-05-27T21:10:55.118Z,4.00
2018-05-27T21:13:22.754Z,5.17
2018-05-27T21:15:50.316Z,3.90
2018-05-27T21:18:17.872Z,3.93
2018-05-27T21:20:45.482Z,3.00
2018-05-27T21:23:13.031Z,4.20
2018-05-27T21:25:40.590Z,4.60
2018-05-27T21:28:08.229Z,4.30
2018-05-27T21:30:35.783Z,4.63
2018-05-27T21:33:03.347Z,4.77
2018-05-27T21:35:30.888Z,3.73
2018-05-27T21:37:58.504Z,4.00
2018-05-27T21:40:26.044Z,4.90
2018-05-27T21:42:53.580Z,4.47
2018-05-27T21:45:21.131Z,5.17
2018-05-27T21:47:48.695Z,4.60
2018-05-27T21:50:16.264Z,5.43
2018-05-27T21:52:43.824Z,4.50
2018-05-27T21:55:11.424Z,5.03
2018-05-27T21:57:39.030Z,4.60
2018-05-27T22:00:06.644Z,5.10
2018-05-27T22:02:34.195Z,4.77
2018-05-27T22:05:01.796Z,4.80
2018-05-27T22:07:29.385Z,4.37
2018-05-27T22:09:56.931Z,4.67
2018-05-27T22:12:24.540Z,3.97
2018-05-27T22:14:52.103Z,3.90
2018-05-27T22:17:19.651Z,4.57
2018-05-27T22:19:47.206Z,4.77
2018-05-27T22:22:14.780Z,3.80
2018-05-27T22:24:42.340Z,4.53
2018-05-27T22:27:09.956Z,4.70
2018-05-27T22:29:37.576Z,5.17
2018-05-27T22:32:05.120Z,4.30
2018-05-27T22:34:32.684Z,5.87
2018-05-27T22:37:00.301Z,5.40
2018-05-27T22:39:27.852Z,6.17
2018-05-27T22:41:55.448Z,6.40
2018-05-27T22:44:23.048Z,6.33
2018-05-27T22:46:50.664Z,6.83
2018-05-27T22:49:18.252Z,9.70
2018-05-27T22:51:45.810Z,10.20
2018-05-27T22:54:13.383Z,11.87
2018-05-27T22:56:40.934Z,9.80
2018-05-27T22:59:08.504Z,9.50
2018-05-27T23:01:36.048Z,8.07
2018-05-27T23:04:03.665Z,8.33
2018-05-27T23:06:31.212Z,7.20
2018-05-27T23:08:58.780Z,7.43
2018-05-27T23:11:26.344Z,7.60
2018-05-27T23:13:53.943Z,6.83
2018-05-27T23:16:21.525Z,7.60
2018-05-27T23:18:49.119Z,7.40
2018-05-27T23:21:16.786Z,5.67
2018-05-27T23:23:44.344Z,6.63
2018-05-27T23:26:11.893Z,5.97
2018-05-27T23:28:39.460Z,6.10
2018-05-27T23:31:07.004Z,6.20
2018-05-27T23:33:34.560Z,6.67
2018-05-27T23:36:02.113Z,5.90
2018-05-27T23:38:29.716Z,6.10
2018-05-27T23:40:57.279Z,6.50
2018-05-27T23:43:24.817Z,5.30
2018-05-27T23:45:52.388Z,6.53
2018-05-27T23:48:19.940Z,6.50
2018-05-27T23:50:47.548Z,6.70
2018-05-27T23:53:15.126Z,5.60
2018-05-27T23:55:42.688Z,6.67
2018-05-27T23:58:10.280Z,5.70
